createdAt,value
2018-03-02T00:00:50.482Z,79.95
2018-03-02T00:01:50.463Z,80.05
2018-03-02T00:02:50.699Z,79.95
2018-03-02T00:03:50.674Z,80.14
2018-03-02T00:04:50.652Z,80.24
2018-03-02T00:05:50.630Z,80.42
2018-03-02T00:06:50.612Z,80.14
2018-03-02T00:07:50.592Z,80.24
2018-03-02T00:08:50.569Z,80.24
2018-03-02T00:09:50.552Z,79.86
2018-03-02T00:10:50.527Z,80.52
2018-03-02T00:11:50.500Z,80.14
2018-03-02T00:12:50.480Z,80.05
2018-03-02T00:13:50.466Z,80.24
2018-03-02T00:14:50.439Z,79.86
2018-03-02T00:15:50.416Z,79.95
2018-03-02T00:16:50.394Z,80.42
2018-03-02T00:17:50.376Z,79.76
2018-03-02T00:18:50.351Z,79.76
2018-03-02T00:19:50.076Z,80.05
2018-03-02T00:20:50.313Z,80.33
2018-03-02T00:21:50.285Z,80.14
2018-03-02T00:22:50.267Z,80.24
2018-03-02T00:23:50.245Z,80.24
2018-03-02T00:24:50.229Z,79.95
2018-03-02T00:25:50.201Z,80.24
2018-03-02T00:26:50.182Z,80.14
2018-03-02T00:27:50.159Z,80.14
2018-03-02T00:28:50.141Z,80.33
2018-03-02T00:29:50.125Z,80.14
2018-03-02T00:30:50.093Z,80.33
2018-03-02T00:31:50.071Z,80.8
2018-03-02T00:32:50.055Z,80.33
2018-03-02T00:33:50.030Z,80.33
2018-03-02T00:34:50.006Z,80.52
2018-03-02T00:35:49.990Z,80.52
2018-03-02T00:36:49.964Z,80.42
2018-03-02T00:37:49.954Z,80.33
2018-03-02T00:38:49.670Z,80.33
2018-03-02T00:39:49.898Z,80.33
2018-03-02T00:40:49.624Z,80.33
2018-03-02T00:41:49.861Z,80.33
2018-03-02T00:42:51.256Z,80.42
2018-03-02T00:43:49.816Z,80.52
2018-03-02T00:44:49.795Z,80.24
2018-03-02T00:45:49.778Z,80.52
2018-03-02T00:46:50.965Z,80.14
2018-03-02T00:47:49.731Z,80.61
2018-03-02T00:48:49.716Z,80.99
2018-03-02T00:49:49.429Z,80.99
2018-03-02T00:50:49.727Z,80.8
2018-03-02T00:51:49.642Z,81.08
2018-03-02T00:52:49.363Z,81.37
2018-03-02T00:53:49.605Z,81.37
2018-03-02T00:54:49.576Z,81.37
2018-03-02T00:55:49.561Z,81.46
2018-03-02T00:56:49.534Z,81.65
2018-03-02T00:57:49.516Z,81.37
2018-03-02T00:58:49.496Z,81.27
2018-03-02T00:59:49.481Z,81.46
2018-03-02T01:00:49.448Z,81.37
2018-03-02T01:01:49.424Z,81.56
2018-03-02T01:02:49.408Z,81.27
2018-03-02T01:03:49.127Z,81.27
2018-03-02T01:04:49.364Z,81.46
2018-03-02T01:05:49.338Z,81.46
2018-03-02T01:06:49.314Z,81.37
2018-03-02T01:07:49.298Z,81.56
2018-03-02T01:08:49.288Z,81.46
2018-03-02T01:09:49.252Z,80.9
2018-03-02T01:10:49.230Z,80.99
2018-03-02T01:11:49.207Z,80.99
2018-03-02T01:12:49.185Z,80.9
2018-03-02T01:13:49.167Z,80.99
2018-03-02T01:14:49.145Z,81.08
2018-03-02T01:15:49.125Z,81.18
2018-03-02T01:16:49.099Z,80.99
2018-03-02T01:17:49.079Z,80.99
2018-03-02T01:18:49.060Z,81.37
2018-03-02T01:19:49.034Z,81.65
2018-03-02T01:20:49.013Z,81.56
2018-03-02T01:21:48.994Z,81.27
2018-03-02T01:22:48.969Z,81.65
2018-03-02T01:23:48.946Z,81.46
2018-03-02T01:24:48.929Z,81.56
2018-03-02T01:25:48.908Z,81.37
2018-03-02T01:26:48.890Z,81.46
2018-03-02T01:27:48.864Z,81.46
2018-03-02T01:28:48.845Z,80.9
2018-03-02T01:29:48.818Z,81.08
2018-03-02T01:30:48.804Z,81.84
2018-03-02T01:31:48.777Z,81.27
2018-03-02T01:32:48.756Z,81.37
2018-03-02T01:33:48.735Z,80.9
2018-03-02T01:34:48.710Z,81.46
2018-03-02T01:35:48.690Z,81.56
2018-03-02T01:36:48.666Z,81.56
2018-03-02T01:37:48.650Z,80.8
2018-03-02T01:38:48.628Z,81.37
2018-03-02T01:39:48.610Z,81.65
2018-03-02T01:40:48.580Z,81.37
2018-03-02T01:41:48.562Z,81.93
2018-03-02T01:42:48.538Z,81.65
2018-03-02T01:43:48.516Z,81.74
2018-03-02T01:44:48.498Z,81.84
2018-03-02T01:45:48.473Z,82.31
2018-03-02T01:46:48.450Z,82.21
2018-03-02T01:47:48.428Z,82.4
2018-03-02T01:48:48.406Z,82.12
2018-03-02T01:49:48.390Z,81.84
2018-03-02T01:50:48.363Z,81.84
2018-03-02T01:51:48.340Z,81.84
2018-03-02T01:52:48.317Z,81.93
2018-03-02T01:53:48.297Z,81.93
2018-03-02T01:54:48.021Z,81.93
2018-03-02T01:55:48.257Z,81.93
2018-03-02T01:56:48.229Z,82.12
2018-03-02T01:57:48.209Z,81.84
2018-03-02T01:58:48.188Z,81.93
2018-03-02T01:59:48.167Z,81.93
2018-03-02T02:00:48.142Z,81.84
2018-03-02T02:01:48.121Z,81.84
2018-03-02T02:02:48.098Z,81.84
2018-03-02T02:03:48.075Z,81.84
2018-03-02T02:04:48.054Z,81.84
2018-03-02T02:05:48.035Z,81.74
2018-03-02T02:06:48.013Z,81.65
2018-03-02T02:07:47.986Z,82.03
2018-03-02T02:08:47.964Z,82.12
2018-03-02T02:09:47.944Z,82.03
2018-03-02T02:10:47.923Z,81.93
2018-03-02T02:11:47.646Z,81.93
2018-03-02T02:12:47.879Z,82.12
2018-03-02T02:13:47.861Z,82.21
2018-03-02T02:14:47.838Z,82.12
2018-03-02T02:15:47.825Z,81.74
2018-03-02T02:16:47.794Z,82.12
2018-03-02T02:17:47.770Z,82.4
2018-03-02T02:18:47.749Z,82.31
2018-03-02T02:19:47.472Z,82.03
2018-03-02T02:20:47.703Z,82.21
2018-03-02T02:21:47.434Z,82.12
2018-03-02T02:22:47.667Z,82.12
2018-03-02T02:23:47.639Z,82.12
2018-03-02T02:24:47.618Z,81.65
2018-03-02T02:25:47.594Z,82.4
2018-03-02T02:26:47.574Z,82.4
2018-03-02T02:27:47.552Z,82.68
2018-03-02T02:28:47.530Z,82.78
2018-03-02T02:29:47.508Z,82.4
2018-03-02T02:30:47.487Z,82.31
2018-03-02T02:31:47.465Z,82.78
2018-03-02T02:32:47.188Z,82.97
2018-03-02T02:33:47.422Z,82.97
2018-03-02T02:34:47.406Z,82.78
2018-03-02T02:35:47.380Z,82.68
2018-03-02T02:36:47.354Z,82.78
2018-03-02T02:37:47.353Z,82.68
2018-03-02T02:38:47.060Z,82.59
2018-03-02T02:39:47.035Z,82.97
2018-03-02T02:40:47.268Z,83.06
2018-03-02T02:41:46.991Z,83.25
2018-03-02T02:42:47.227Z,83.53
2018-03-02T02:43:47.202Z,83.25
2018-03-02T02:44:47.193Z,83.25
2018-03-02T02:45:47.159Z,83.34
2018-03-02T02:46:47.134Z,83.34
2018-03-02T02:47:46.861Z,83.15
2018-03-02T02:48:47.090Z,83.62
2018-03-02T02:49:47.072Z,83.53
2018-03-02T02:50:47.050Z,83.72
2018-03-02T02:51:47.024Z,83.91
2018-03-02T02:52:47.006Z,84
2018-03-02T02:53:46.983Z,84.19
2018-03-02T02:54:46.963Z,83.81
2018-03-02T02:55:46.938Z,83.91
2018-03-02T02:56:46.664Z,84
2018-03-02T02:57:46.898Z,83.81
2018-03-02T02:58:46.872Z,83.81
2018-03-02T02:59:46.603Z,83.53
2018-03-02T03:00:46.825Z,83.91
2018-03-02T03:01:46.551Z,83.91
2018-03-02T03:02:46.781Z,84.56
2018-03-02T03:03:46.764Z,84.09
2018-03-02T03:04:46.495Z,83.91
2018-03-02T03:05:46.717Z,84
2018-03-02T03:06:46.694Z,84.28
2018-03-02T03:07:46.674Z,84
2018-03-02T03:08:46.653Z,84.47
2018-03-02T03:09:46.374Z,84.28
2018-03-02T03:10:46.614Z,84.47
2018-03-02T03:11:48.002Z,84.66
2018-03-02T03:12:46.564Z,84.56
2018-03-02T03:13:46.545Z,84.28
2018-03-02T03:14:46.519Z,84.28
2018-03-02T03:15:46.496Z,85.6
2018-03-02T03:16:46.482Z,84.28
2018-03-02T03:17:46.449Z,84.94
2018-03-02T03:18:46.430Z,84.85
2018-03-02T03:19:46.415Z,84.47
2018-03-02T03:20:46.131Z,84.66
2018-03-02T03:21:46.366Z,84.66
2018-03-02T03:22:46.342Z,84.09
2018-03-02T03:23:46.319Z,84.94
2018-03-02T03:24:46.044Z,85.04
2018-03-02T03:25:46.278Z,84.47
2018-03-02T03:26:46.257Z,84.47
2018-03-02T03:27:46.228Z,84.38
2018-03-02T03:28:46.208Z,84.28
2018-03-02T03:29:46.188Z,84.47
2018-03-02T03:30:46.167Z,84.19
2018-03-02T03:31:46.145Z,84.66
2018-03-02T03:32:46.123Z,84.19
2018-03-02T03:33:46.103Z,84.09
2018-03-02T03:34:45.822Z,85.04
2018-03-02T03:35:48.740Z,85.41
2018-03-02T03:36:46.033Z,84.66
2018-03-02T03:37:46.015Z,84.85
2018-03-02T03:38:45.990Z,84.75
2018-03-02T03:39:45.965Z,84.85
2018-03-02T03:40:45.954Z,84.94
2018-03-02T03:41:45.922Z,85.13
2018-03-02T03:42:45.899Z,84.75
2018-03-02T03:43:45.878Z,84.75
2018-03-02T03:44:45.862Z,85.04
2018-03-02T03:45:45.834Z,85.22
2018-03-02T03:46:45.817Z,85.51
2018-03-02T03:47:45.790Z,85.51
2018-03-02T03:48:45.769Z,84.94
2018-03-02T03:49:45.746Z,85.04
2018-03-02T03:50:45.725Z,85.04
2018-03-02T03:51:45.702Z,85.13
2018-03-02T03:52:45.679Z,85.41
2018-03-02T03:53:45.656Z,85.32
2018-03-02T03:54:45.644Z,85.13
2018-03-02T03:55:45.616Z,84.94
2018-03-02T03:56:45.337Z,85.13
2018-03-02T03:57:45.569Z,85.32
2018-03-02T03:58:45.546Z,85.22
2018-03-02T03:59:45.530Z,85.41
2018-03-02T04:00:45.510Z,85.41
2018-03-02T04:01:45.489Z,85.51
2018-03-02T04:02:45.204Z,85.51
2018-03-02T04:03:45.186Z,86.07
2018-03-02T04:04:45.413Z,86.07
2018-03-02T04:05:45.391Z,85.88
2018-03-02T04:06:45.116Z,85.6
2018-03-02T04:07:45.348Z,85.7
2018-03-02T04:08:45.325Z,85.7
2018-03-02T04:09:45.304Z,85.79
2018-03-02T04:10:45.281Z,85.6
2018-03-02T04:11:45.262Z,86.17
2018-03-02T04:12:45.238Z,85.98
2018-03-02T04:13:45.217Z,85.88
2018-03-02T04:14:45.200Z,85.94
2018-03-02T04:15:45.169Z,85.79
2018-03-02T04:16:44.896Z,86.54
2018-03-02T04:17:45.125Z,86.26
2018-03-02T04:18:45.106Z,86.54
2018-03-02T04:19:45.083Z,86.5
2018-03-02T04:20:45.063Z,86.26
2018-03-02T04:21:45.039Z,86.13
2018-03-02T04:22:45.017Z,85.79
2018-03-02T04:23:44.996Z,86.07
2018-03-02T04:24:44.971Z,85.79
2018-03-02T04:25:44.699Z,85.94
2018-03-02T04:26:44.927Z,85.88
2018-03-02T04:27:44.905Z,86.03
2018-03-02T04:28:44.883Z,86.31
2018-03-02T04:29:44.865Z,86.36
2018-03-02T04:30:44.842Z,85.98
2018-03-02T04:31:44.564Z,85.98
2018-03-02T04:32:44.795Z,86.88
2018-03-02T04:33:44.774Z,86.03
2018-03-02T04:34:44.750Z,86.92
2018-03-02T04:35:44.728Z,86.88
2018-03-02T04:36:44.453Z,86.78
2018-03-02T04:37:44.684Z,86.83
2018-03-02T04:38:44.660Z,86.83
2018-03-02T04:39:44.643Z,86.78
2018-03-02T04:40:44.624Z,86.88
2018-03-02T04:41:44.594Z,86.22
2018-03-02T04:42:44.576Z,86.45
2018-03-02T04:43:44.552Z,86.17
2018-03-02T04:44:44.527Z,86.26
2018-03-02T04:45:44.506Z,86.36
2018-03-02T04:46:44.485Z,86.45
2018-03-02T04:47:44.472Z,86.26
2018-03-02T04:48:44.443Z,86.5
2018-03-02T04:49:44.417Z,86.22
2018-03-02T04:50:44.144Z,86.17
2018-03-02T04:51:44.119Z,86.22
2018-03-02T04:52:44.349Z,86.22
2018-03-02T04:53:44.330Z,86.88
2018-03-02T04:54:44.308Z,86.88
2018-03-02T04:55:44.283Z,86.6
2018-03-02T04:56:44.269Z,86.69
2018-03-02T04:57:44.244Z,86.69
2018-03-02T04:58:44.220Z,86.69
2018-03-02T04:59:44.196Z,87.44
2018-03-02T05:00:44.173Z,86.97
2018-03-02T05:01:44.153Z,87.26
2018-03-02T05:02:44.130Z,87.35
2018-03-02T05:03:44.163Z,87.16
2018-03-02T05:04:44.086Z,86.97
2018-03-02T05:05:44.064Z,87.26
2018-03-02T05:06:44.040Z,86.88
2018-03-02T05:07:44.017Z,87.07
2018-03-02T05:08:43.997Z,86.54
2018-03-02T05:09:43.974Z,86.83
2018-03-02T05:10:43.951Z,86.64
2018-03-02T05:11:43.675Z,86.69
2018-03-02T05:12:43.905Z,86.64
2018-03-02T05:13:43.882Z,86.92
2018-03-02T05:14:43.862Z,86.54
2018-03-02T05:15:43.866Z,86.17
2018-03-02T05:16:43.819Z,86.54
2018-03-02T05:17:43.793Z,85.79
2018-03-02T05:18:43.771Z,86.13
2018-03-02T05:19:43.749Z,86.03
2018-03-02T05:20:43.728Z,86.13
2018-03-02T05:21:43.707Z,86.31
2018-03-02T05:22:43.682Z,86.5
2018-03-02T05:23:43.666Z,86.6
2018-03-02T05:24:43.640Z,86.41
2018-03-02T05:25:43.616Z,86.88
2018-03-02T05:26:43.595Z,86.6
2018-03-02T05:27:43.572Z,86.69
2018-03-02T05:28:43.548Z,86.54
2018-03-02T05:29:43.527Z,86.69
2018-03-02T05:30:43.504Z,86.88
2018-03-02T05:31:43.488Z,86.88
2018-03-02T05:32:43.461Z,86.78
2018-03-02T05:33:43.185Z,86.22
2018-03-02T05:34:43.415Z,86.5
2018-03-02T05:35:43.395Z,86.22
2018-03-02T05:36:43.370Z,86.5
2018-03-02T05:37:43.351Z,86.5
2018-03-02T05:38:43.328Z,86.5
2018-03-02T05:39:43.316Z,87.07
2018-03-02T05:40:43.031Z,86.88
2018-03-02T05:41:43.269Z,87.54
2018-03-02T05:42:43.279Z,87.26
2018-03-02T05:43:43.218Z,87.07
2018-03-02T05:44:43.196Z,86.97
2018-03-02T05:45:43.177Z,86.78
2018-03-02T05:46:43.150Z,87.63
2018-03-02T05:47:43.127Z,86.78
2018-03-02T05:48:43.106Z,87.16
2018-03-02T05:49:43.085Z,86.97
2018-03-02T05:50:43.062Z,86.78
2018-03-02T05:51:43.038Z,87.63
2018-03-02T05:52:43.017Z,87.82
2018-03-02T05:53:43.000Z,88.1
2018-03-02T05:54:42.970Z,88.01
2018-03-02T05:55:42.950Z,87.82
2018-03-02T05:56:43.227Z,87.92
2018-03-02T05:57:42.903Z,88.01
2018-03-02T05:58:42.883Z,87.63
2018-03-02T05:59:42.862Z,88.01
2018-03-02T06:00:42.839Z,87.35
2018-03-02T06:01:42.813Z,87.54
2018-03-02T06:02:42.793Z,87.54
2018-03-02T06:03:42.771Z,87.54
2018-03-02T06:04:42.748Z,87.63
2018-03-02T06:05:42.724Z,87.73
2018-03-02T06:06:42.702Z,87.44
2018-03-02T06:07:42.678Z,87.63
2018-03-02T06:08:42.659Z,87.73
2018-03-02T06:09:42.641Z,87.44
2018-03-02T06:10:42.617Z,87.63
2018-03-02T06:11:42.594Z,87.73
2018-03-02T06:12:42.579Z,87.44
2018-03-02T06:13:42.548Z,87.44
2018-03-02T06:14:42.524Z,87.35
2018-03-02T06:15:42.250Z,87.35
2018-03-02T06:16:42.480Z,87.63
2018-03-02T06:17:42.457Z,87.92
2018-03-02T06:18:42.441Z,87.44
2018-03-02T06:19:42.417Z,87.44
2018-03-02T06:20:42.136Z,86.97
2018-03-02T06:21:42.373Z,86.97
2018-03-02T06:22:42.360Z,86.88
2018-03-02T06:23:42.324Z,87.35
2018-03-02T06:24:42.307Z,87.44
2018-03-02T06:25:42.282Z,86.78
2018-03-02T06:26:42.258Z,86.97
2018-03-02T06:27:42.237Z,86.69
2018-03-02T06:28:42.213Z,86.69
2018-03-02T06:29:42.193Z,86.41
2018-03-02T06:30:42.169Z,86.69
2018-03-02T06:31:42.149Z,86.45
2018-03-02T06:32:42.127Z,86.73
2018-03-02T06:33:41.858Z,86.54
2018-03-02T06:34:41.829Z,86.07
2018-03-02T06:35:42.064Z,86.36
2018-03-02T06:36:42.045Z,86.54
2018-03-02T06:37:42.019Z,86.26
2018-03-02T06:38:42.015Z,85.79
2018-03-02T06:39:41.977Z,85.22
2018-03-02T06:40:41.959Z,85.22
2018-03-02T06:41:41.936Z,84.94
2018-03-02T06:42:41.922Z,85.22
2018-03-02T06:43:41.898Z,85.13
2018-03-02T06:44:41.880Z,84.28
2018-03-02T06:45:41.597Z,84.94
2018-03-02T06:46:41.579Z,84.19
2018-03-02T06:47:41.814Z,84.28
2018-03-02T06:48:41.797Z,83.91
2018-03-02T06:49:41.768Z,83.72
2018-03-02T06:50:41.751Z,83.62
2018-03-02T06:51:41.726Z,83.34
2018-03-02T06:52:41.707Z,83.25
2018-03-02T06:53:41.689Z,83.25
2018-03-02T06:54:41.668Z,82.4
2018-03-02T06:55:41.645Z,82.21
2018-03-02T06:56:41.627Z,81.93
2018-03-02T06:57:41.605Z,81.18
2018-03-02T06:58:41.389Z,80.52
2018-03-02T06:59:41.577Z,80.14
2018-03-02T07:00:41.552Z,80.61
2018-03-02T07:01:41.528Z,80.52
2018-03-02T07:02:41.513Z,80.33
2018-03-02T07:03:41.493Z,80.42
2018-03-02T07:04:41.474Z,79.58
2018-03-02T07:05:41.452Z,79.58
2018-03-02T07:06:41.429Z,79.67
2018-03-02T07:07:41.409Z,79.1
2018-03-02T07:08:41.143Z,79.33
2018-03-02T07:09:41.373Z,79.14
2018-03-02T07:10:41.355Z,79.14
2018-03-02T07:11:41.335Z,78.58
2018-03-02T07:12:41.317Z,78.2
2018-03-02T07:13:41.304Z,77.55
2018-03-02T07:14:41.430Z,77.73
2018-03-02T07:15:41.264Z,78.3
2018-03-02T07:16:41.241Z,78.39
2018-03-02T07:17:40.971Z,78.11
2018-03-02T07:18:41.214Z,78.02
2018-03-02T07:19:41.193Z,77.83
2018-03-02T07:20:41.170Z,77.55
2018-03-02T07:21:41.153Z,76.79
2018-03-02T07:22:41.134Z,76.98
2018-03-02T07:23:41.115Z,77.07
2018-03-02T07:24:41.104Z,77.17
2018-03-02T07:25:41.081Z,76.79
2018-03-02T07:26:40.812Z,76.22
2018-03-02T07:27:41.045Z,75.56
2018-03-02T07:28:41.093Z,75.47
2018-03-02T07:29:40.759Z,74.71
2018-03-02T07:30:40.997Z,74.81
2018-03-02T07:31:40.975Z,74.24
2018-03-02T07:32:40.958Z,74.53
2018-03-02T07:33:40.941Z,74.81
2018-03-02T07:34:40.927Z,74.34
2018-03-02T07:35:40.905Z,74.81
2018-03-02T07:36:40.894Z,74.62
2018-03-02T07:37:40.873Z,75.47
2018-03-02T07:38:40.605Z,74.62
2018-03-02T07:39:40.846Z,74.71
2018-03-02T07:40:40.820Z,73.96
2018-03-02T07:41:40.804Z,73.87
2018-03-02T07:42:40.787Z,74.05
2018-03-02T07:43:40.781Z,74.05
2018-03-02T07:44:40.752Z,73.96
2018-03-02T07:45:40.736Z,73.96
2018-03-02T07:46:40.720Z,74.05
2018-03-02T07:47:40.700Z,74.24
2018-03-02T07:48:40.682Z,73.11
2018-03-02T07:49:40.421Z,73.02
2018-03-02T07:50:40.647Z,72.74
2018-03-02T07:51:40.376Z,72.83
2018-03-02T07:52:40.617Z,73.58
2018-03-02T07:53:40.597Z,73.06
2018-03-02T07:54:40.580Z,72.49
2018-03-02T07:55:40.569Z,72.87
2018-03-02T07:56:40.574Z,72.87
2018-03-02T07:57:40.279Z,73.06
2018-03-02T07:58:40.522Z,72.4
2018-03-02T07:59:40.499Z,72.49
2018-03-02T08:00:40.479Z,72.68
2018-03-02T08:01:40.461Z,72.21
2018-03-02T08:02:40.448Z,71.92
2018-03-02T08:03:40.427Z,72.02
2018-03-02T08:04:40.412Z,72.17
2018-03-02T08:05:40.394Z,71.98
2018-03-02T08:06:40.424Z,72.74
2018-03-02T08:07:40.362Z,72.55
2018-03-02T08:08:40.352Z,73.02
2018-03-02T08:09:40.323Z,73.11
2018-03-02T08:10:40.305Z,72.92
2018-03-02T08:11:40.293Z,73.02
2018-03-02T08:12:40.028Z,73.39
2018-03-02T08:13:39.998Z,73.3
2018-03-02T08:14:40.235Z,73.39
2018-03-02T08:15:40.218Z,73.39
2018-03-02T08:16:40.200Z,73.96
2018-03-02T08:17:40.184Z,74.05
2018-03-02T08:18:39.906Z,74.15
2018-03-02T08:19:39.887Z,73.87
2018-03-02T08:20:40.122Z,74.24
2018-03-02T08:21:40.102Z,74.34
2018-03-02T08:22:39.829Z,74.34
2018-03-02T08:23:40.071Z,74.43
2018-03-02T08:24:40.047Z,74.24
2018-03-02T08:25:40.026Z,73.87
2018-03-02T08:26:40.015Z,73.96
2018-03-02T08:27:39.987Z,73.87
2018-03-02T08:28:39.975Z,73.96
2018-03-02T08:29:39.950Z,73.77
2018-03-02T08:30:39.930Z,73.3
2018-03-02T08:31:39.978Z,73.49
2018-03-02T08:32:39.637Z,73.68
2018-03-02T08:33:39.873Z,73.68
2018-03-02T08:34:39.853Z,73.3
2018-03-02T08:35:39.837Z,73.21
2018-03-02T08:36:39.820Z,73.39
2018-03-02T08:37:39.802Z,74.15
2018-03-02T08:38:39.780Z,73.77
2018-03-02T08:39:39.765Z,74.1
2018-03-02T08:40:39.738Z,73.72
2018-03-02T08:41:39.469Z,73.02
2018-03-02T08:42:39.702Z,73.77
2018-03-02T08:43:39.686Z,73.34
2018-03-02T08:44:39.668Z,73.25
2018-03-02T08:45:39.651Z,73.34
2018-03-02T08:46:39.650Z,72.87
2018-03-02T08:47:39.602Z,72.87
2018-03-02T08:48:39.584Z,72.87
2018-03-02T08:49:39.321Z,72.96
2018-03-02T08:50:39.556Z,72.49
2018-03-02T08:51:39.531Z,72.49
2018-03-02T08:52:39.506Z,72.77
2018-03-02T08:53:39.489Z,73.06
2018-03-02T08:54:39.470Z,72.58
2018-03-02T08:55:39.456Z,73.06
2018-03-02T08:56:39.436Z,72.96
2018-03-02T08:57:39.415Z,72.58
2018-03-02T08:58:39.404Z,73.06
2018-03-02T08:59:39.431Z,73.06
2018-03-02T09:00:39.364Z,72.58
2018-03-02T09:01:39.335Z,72.58
2018-03-02T09:02:39.324Z,72.77
2018-03-02T09:03:39.307Z,72.68
2018-03-02T09:04:39.277Z,71.83
2018-03-02T09:05:39.264Z,71.64
2018-03-02T09:06:39.245Z,71.36
2018-03-02T09:07:39.219Z,70.79
2018-03-02T09:08:39.233Z,71.26
2018-03-02T09:09:39.182Z,71.55
2018-03-02T09:10:39.163Z,71.26
2018-03-02T09:11:39.144Z,71.83
2018-03-02T09:12:39.133Z,71.55
2018-03-02T09:13:39.108Z,71.55
2018-03-02T09:14:39.097Z,71.08
2018-03-02T09:15:38.815Z,70.61
2018-03-02T09:16:38.824Z,70.79
2018-03-02T09:17:39.033Z,70.23
2018-03-02T09:18:39.015Z,70.79
2018-03-02T09:19:38.993Z,70.7
2018-03-02T09:20:38.975Z,70.7
2018-03-02T09:21:38.964Z,69.95
2018-03-02T09:22:38.940Z,69.85
2018-03-02T09:23:38.958Z,69.85
2018-03-02T09:24:38.922Z,69.1
2018-03-02T09:25:38.887Z,69.38
2018-03-02T09:26:38.868Z,69.48
2018-03-02T09:27:38.855Z,68.72
2018-03-02T09:28:38.603Z,68.91
2018-03-02T09:29:38.805Z,69.29
2018-03-02T09:30:38.794Z,69.19
2018-03-02T09:31:38.770Z,68.91
2018-03-02T09:32:38.762Z,68.63
2018-03-02T09:33:38.736Z,69.19
2018-03-02T09:34:38.715Z,69.67
2018-03-02T09:35:38.698Z,69.38
2018-03-02T09:36:38.678Z,68.91
2018-03-02T09:37:38.660Z,68.91
2018-03-02T09:38:38.640Z,68.53
2018-03-02T09:39:38.631Z,68.63
2018-03-02T09:40:38.351Z,68.53
2018-03-02T09:41:38.330Z,68.34
2018-03-02T09:42:38.579Z,68.25
2018-03-02T09:43:38.551Z,68.25
2018-03-02T09:44:38.549Z,68.53
2018-03-02T09:45:38.514Z,68.72
2018-03-02T09:46:38.492Z,68.34
2018-03-02T09:47:38.472Z,68.15
2018-03-02T09:48:38.451Z,68.06
2018-03-02T09:49:38.454Z,68.06
2018-03-02T09:50:38.422Z,67.49
2018-03-02T09:51:38.142Z,67.34
2018-03-02T09:52:38.392Z,67.34
2018-03-02T09:53:38.360Z,67.06
2018-03-02T09:54:38.343Z,67.43
2018-03-02T09:55:38.324Z,67.53
2018-03-02T09:56:38.052Z,67.15
2018-03-02T09:57:38.285Z,67.15
2018-03-02T09:58:38.043Z,66.96
2018-03-02T09:59:38.283Z,67.43
2018-03-02T10:00:38.233Z,67.15
2018-03-02T10:01:37.960Z,66.49
2018-03-02T10:02:38.207Z,65.73
2018-03-02T10:03:38.180Z,65.55
2018-03-02T10:04:38.159Z,64.89
2018-03-02T10:05:38.144Z,65.08
2018-03-02T10:06:38.173Z,64.98
2018-03-02T10:07:38.119Z,65.17
2018-03-02T10:08:38.085Z,65.26
2018-03-02T10:09:38.080Z,64.7
2018-03-02T10:10:38.054Z,64.32
2018-03-02T10:11:38.109Z,64.04
2018-03-02T10:12:38.019Z,64.42
2018-03-02T10:13:37.996Z,64.42
2018-03-02T10:14:37.725Z,64.04
2018-03-02T10:15:37.959Z,64.32
2018-03-02T10:16:37.943Z,64.14
2018-03-02T10:17:37.933Z,63.29
2018-03-02T10:18:37.922Z,63.47
2018-03-02T10:19:37.891Z,63.29
2018-03-02T10:20:37.868Z,62.91
2018-03-02T10:21:37.597Z,62.81
2018-03-02T10:22:37.616Z,62.53
2018-03-02T10:23:37.872Z,62.91
2018-03-02T10:24:37.544Z,62.53
2018-03-02T10:25:37.816Z,62.81
2018-03-02T10:26:37.811Z,62.62
2018-03-02T10:27:37.772Z,62.81
2018-03-02T10:28:37.726Z,62.62
2018-03-02T10:29:37.714Z,62.72
2018-03-02T10:30:37.738Z,62.72
2018-03-02T10:31:37.673Z,62.53
2018-03-02T10:32:37.711Z,62.91
2018-03-02T10:33:37.398Z,63.1
2018-03-02T10:34:37.623Z,63.29
2018-03-02T10:35:37.606Z,62.72
2018-03-02T10:36:37.587Z,62.81
2018-03-02T10:37:37.568Z,63.29
2018-03-02T10:38:37.550Z,63.19
2018-03-02T10:39:37.540Z,62.91
2018-03-02T10:40:37.258Z,62.81
2018-03-02T10:41:37.551Z,62.62
2018-03-02T10:42:37.223Z,62.81
2018-03-02T10:43:37.204Z,63
2018-03-02T10:44:37.447Z,62.81
2018-03-02T10:45:37.423Z,62.81
2018-03-02T10:46:37.407Z,62.34
2018-03-02T10:47:37.133Z,62.25
2018-03-02T10:48:37.379Z,62.62
2018-03-02T10:49:37.133Z,62.43
2018-03-02T10:50:37.340Z,62.25
2018-03-02T10:51:37.322Z,62.43
2018-03-02T10:52:37.068Z,62.15
2018-03-02T10:53:37.280Z,61.96
2018-03-02T10:54:37.262Z,62.43
2018-03-02T10:55:37.249Z,62.34
2018-03-02T10:56:37.234Z,62.34
2018-03-02T10:57:37.216Z,62.47
2018-03-02T10:58:37.192Z,62.66
2018-03-02T10:59:37.173Z,62.56
2018-03-02T11:00:37.155Z,62.47
2018-03-02T11:01:37.139Z,61.99
2018-03-02T11:02:37.122Z,61.99
2018-03-02T11:03:37.102Z,61.61
2018-03-02T11:04:36.834Z,61.15
2018-03-02T11:05:37.070Z,60.86
2018-03-02T11:06:37.056Z,60.77
2018-03-02T11:07:37.038Z,60.86
2018-03-02T11:08:37.015Z,60.96
2018-03-02T11:09:36.997Z,61.05
2018-03-02T11:10:36.982Z,60.86
2018-03-02T11:11:36.961Z,60.77
2018-03-02T11:12:36.944Z,60.21
2018-03-02T11:13:36.926Z,60.21
2018-03-02T11:14:36.655Z,60.96
2018-03-02T11:15:36.894Z,60.86
2018-03-02T11:16:36.872Z,60.77
2018-03-02T11:17:36.601Z,60.3
2018-03-02T11:18:36.838Z,60.3
2018-03-02T11:19:36.824Z,60.3
2018-03-02T11:20:36.803Z,60.77
2018-03-02T11:21:36.535Z,60.39
2018-03-02T11:22:36.769Z,60.39
2018-03-02T11:23:36.750Z,59.54
2018-03-02T11:24:36.483Z,59.07
2018-03-02T11:25:36.738Z,59.35
2018-03-02T11:26:36.697Z,59.54
2018-03-02T11:27:36.685Z,59.45
2018-03-02T11:28:36.410Z,59.07
2018-03-02T11:29:36.646Z,59.54
2018-03-02T11:30:36.633Z,59.92
2018-03-02T11:31:36.610Z,60.3
2018-03-02T11:32:36.593Z,60.3
2018-03-02T11:33:36.575Z,59.17
2018-03-02T11:34:36.561Z,59.07
2018-03-02T11:35:36.639Z,58.98
2018-03-02T11:36:36.522Z,58.88
2018-03-02T11:37:36.507Z,58.41
2018-03-02T11:38:36.488Z,58.6
2018-03-02T11:39:36.479Z,58.31
2018-03-02T11:40:36.458Z,58.03
2018-03-02T11:41:36.186Z,58.41
2018-03-02T11:42:36.168Z,58.31
2018-03-02T11:43:36.401Z,58.22
2018-03-02T11:44:36.385Z,58.31
2018-03-02T11:45:36.382Z,58.12
2018-03-02T11:46:36.400Z,57.94
2018-03-02T11:47:36.080Z,58.6
2018-03-02T11:48:36.319Z,58.22
2018-03-02T11:49:36.302Z,58.12
2018-03-02T11:50:36.286Z,58.31
2018-03-02T11:51:36.468Z,58.22
2018-03-02T11:52:36.300Z,58.12
2018-03-02T11:53:35.983Z,58.5
2018-03-02T11:54:36.214Z,58.31
2018-03-02T11:55:36.197Z,58.6
2018-03-02T11:56:36.181Z,58.12
2018-03-02T11:57:36.172Z,58.03
2018-03-02T11:58:36.143Z,58.03
2018-03-02T11:59:36.141Z,57.94
2018-03-02T12:00:36.110Z,57.94
2018-03-02T12:01:36.092Z,58.22
2018-03-02T12:02:36.103Z,58.41
2018-03-02T12:03:35.807Z,58.03
2018-03-02T12:04:36.043Z,57.94
2018-03-02T12:05:36.031Z,58.06
2018-03-02T12:06:36.008Z,57.94
2018-03-02T12:07:35.994Z,58.12
2018-03-02T12:08:35.982Z,57.97
2018-03-02T12:09:35.959Z,57.78
2018-03-02T12:10:35.982Z,57.5
2018-03-02T12:11:35.928Z,57.46
2018-03-02T12:12:35.909Z,57.84
2018-03-02T12:13:35.898Z,58.03
2018-03-02T12:14:35.618Z,58.03
2018-03-02T12:15:35.602Z,58.03
2018-03-02T12:16:35.839Z,58.15
2018-03-02T12:17:35.830Z,58.31
2018-03-02T12:18:35.818Z,58.15
2018-03-02T12:19:35.789Z,57.87
2018-03-02T12:20:35.770Z,58.25
2018-03-02T12:21:35.761Z,57.97
2018-03-02T12:22:35.858Z,58.15
2018-03-02T12:23:35.720Z,58.15
2018-03-02T12:24:35.449Z,57.21
2018-03-02T12:25:35.687Z,57.31
2018-03-02T12:26:35.423Z,57.4
2018-03-02T12:27:35.694Z,56.93
2018-03-02T12:28:35.729Z,57.31
2018-03-02T12:29:35.625Z,57.31
2018-03-02T12:30:35.606Z,57.4
2018-03-02T12:31:35.618Z,57.12
2018-03-02T12:32:35.568Z,57.21
2018-03-02T12:33:35.567Z,57.12
2018-03-02T12:34:35.290Z,56.93
2018-03-02T12:35:35.523Z,56.74
2018-03-02T12:36:35.622Z,57.03
2018-03-02T12:37:35.486Z,56.84
2018-03-02T12:38:35.473Z,56.74
2018-03-02T12:39:35.450Z,56.93
2018-03-02T12:40:35.438Z,56.93
2018-03-02T12:41:35.167Z,56.84
2018-03-02T12:42:35.404Z,55.98
2018-03-02T12:43:35.388Z,55.89
2018-03-02T12:44:35.528Z,55.89
2018-03-02T12:45:35.111Z,55.89
2018-03-02T12:46:35.337Z,55.42
2018-03-02T12:47:35.077Z,55.23
2018-03-02T12:48:35.308Z,54.75
2018-03-02T12:49:35.305Z,55.04
2018-03-02T12:50:35.025Z,55.23
2018-03-02T12:51:35.255Z,56.08
2018-03-02T12:52:35.238Z,55.89
2018-03-02T12:53:35.222Z,55.61
2018-03-02T12:54:35.427Z,55.98